createdAt,value
2022-08-18T00:01:08.791Z,91.01
2022-08-18T00:11:13.657Z,92.78
2022-08-18T00:21:16.819Z,93.09
2022-08-18T00:31:28.227Z,94.21
2022-08-18T00:41:34.690Z,94.94
2022-08-18T00:51:44.533Z,95.61
2022-08-18T01:01:50.424Z,95.42
2022-08-18T01:11:56.615Z,95.61
2022-08-18T01:22:06.136Z,95.79
2022-08-18T01:32:08.246Z,96.62
2022-08-18T01:42:10.860Z,97.83
2022-08-18T01:52:22.116Z,98.07
2022-08-18T02:02:27.454Z,97.78
2022-08-18T02:12:29.682Z,96.51
2022-08-18T02:22:32.510Z,98.06
2022-08-18T02:32:36.906Z,99.49
2022-08-18T02:42:39.420Z,100.00
2022-08-18T02:52:43.827Z,100.00
2022-08-18T03:02:51.718Z,100.00
2022-08-18T03:12:58.831Z,100.00
2022-08-18T03:23:05.759Z,100.00
2022-08-18T03:33:12.074Z,100.00
2022-08-18T03:43:23.937Z,100.00
2022-08-18T03:53:38.602Z,100.00
2022-08-18T04:03:40.633Z,97.90
2022-08-18T04:13:47.937Z,92.01
2022-08-18T04:23:50.114Z,89.84
2022-08-18T04:33:54.654Z,83.71
2022-08-18T04:44:06.106Z,82.24
2022-08-18T04:54:11.321Z,75.96
2022-08-18T05:04:17.257Z,72.96
2022-08-18T05:14:21.740Z,67.35
2022-08-18T05:24:32.209Z,65.19
2022-08-18T05:34:36.834Z,62.04
2022-08-18T05:44:43.660Z,57.94
2022-08-18T05:55:18.603Z,56.95
2022-08-18T06:05:37.283Z,57.95
2022-08-18T06:16:06.553Z,54.15
2022-08-18T06:26:43.383Z,52.89
2022-08-18T06:37:09.766Z,52.80
2022-08-18T06:47:26.413Z,51.31
2022-08-18T06:57:39.436Z,51.14
2022-08-18T07:07:44.953Z,49.91
2022-08-18T07:17:50.720Z,49.04
2022-08-18T07:27:58.298Z,50.06
2022-08-18T07:38:42.074Z,49.61
2022-08-18T07:48:42.350Z,48.49
2022-08-18T07:58:48.285Z,48.29
2022-08-18T08:09:03.356Z,47.81
2022-08-18T08:19:56.756Z,44.16
2022-08-18T08:30:05.565Z,46.56
2022-08-18T08:40:29.426Z,45.52
2022-08-18T08:50:36.940Z,46.13
2022-08-18T09:00:44.431Z,46.85
2022-08-18T09:10:59.593Z,45.80
2022-08-18T09:21:32.213Z,45.47
2022-08-18T09:31:36.844Z,46.14
2022-08-18T09:41:50.661Z,47.96
2022-08-18T09:52:25.863Z,45.60
2022-08-18T10:02:33.970Z,44.84
2022-08-18T10:13:11.541Z,46.69
2022-08-18T10:24:02.760Z,48.00
2022-08-18T10:34:40.054Z,47.36
2022-08-18T10:45:11.769Z,45.72
2022-08-18T10:55:18.466Z,45.28
2022-08-18T11:05:26.813Z,44.63
2022-08-18T11:16:15.750Z,42.69
2022-08-18T11:26:19.458Z,43.52
2022-08-18T11:36:33.209Z,42.94
2022-08-18T11:46:40.910Z,43.12
2022-08-18T11:56:45.205Z,41.70
2022-08-18T12:06:59.890Z,40.08
2022-08-18T12:17:04.110Z,39.93
2022-08-18T12:27:21.130Z,40.57
2022-08-18T12:37:58.412Z,41.56
2022-08-18T12:47:52.721Z,42.04
2022-08-18T12:57:54.964Z,41.33
2022-08-18T13:08:04.210Z,41.44
2022-08-18T13:18:09.282Z,41.33
2022-08-18T13:28:22.114Z,42.61
2022-08-18T13:38:27.820Z,43.21
2022-08-18T13:48:32.243Z,43.14
2022-08-18T13:58:34.389Z,42.48
2022-08-18T14:08:36.776Z,42.88
2022-08-18T14:19:05.380Z,43.28
2022-08-18T14:29:16.925Z,43.21
2022-08-18T14:39:30.072Z,44.33
2022-08-18T14:49:33.387Z,43.59
2022-08-18T14:59:42.269Z,43.78
2022-08-18T15:09:51.089Z,44.21
2022-08-18T15:20:18.598Z,43.29
2022-08-18T15:30:21.751Z,43.18
2022-08-18T15:40:30.825Z,43.75
2022-08-18T15:50:51.119Z,43.82
2022-08-18T16:00:55.459Z,43.33
2022-08-18T16:11:10.010Z,43.60
2022-08-18T16:21:26.421Z,44.11
2022-08-18T16:31:31.656Z,44.07
2022-08-18T16:41:40.205Z,44.33
2022-08-18T16:51:45.613Z,44.86
2022-08-18T17:02:11.647Z,45.07
2022-08-18T17:12:13.926Z,45.68
2022-08-18T17:22:19.191Z,46.12
2022-08-18T17:32:29.291Z,46.53
2022-08-18T17:42:35.894Z,47.10
2022-08-18T17:52:53.338Z,47.55
2022-08-18T18:03:00.495Z,48.16
2022-08-18T18:13:11.757Z,48.52
2022-08-18T18:23:20.298Z,49.80
2022-08-18T18:33:25.613Z,51.05
2022-08-18T18:43:45.684Z,52.32
2022-08-18T18:54:07.438Z,52.70
2022-08-18T19:04:16.524Z,53.64
2022-08-18T19:14:26.731Z,54.66
2022-08-18T19:24:30.196Z,54.86
2022-08-18T19:34:37.750Z,55.74
2022-08-18T19:45:23.049Z,56.87
2022-08-18T19:56:03.481Z,58.55
2022-08-18T20:06:40.171Z,60.38
2022-08-18T20:17:24.580Z,62.05
2022-08-18T20:27:35.999Z,60.82
2022-08-18T20:37:43.200Z,61.13
2022-08-18T20:48:25.021Z,62.22
2022-08-18T20:58:32.337Z,61.92
2022-08-18T21:08:36.552Z,62.74
2022-08-18T21:18:39.792Z,63.43
2022-08-18T21:28:48.453Z,65.27
2022-08-18T21:39:06.186Z,66.68
2022-08-18T21:49:23.682Z,68.08
2022-08-18T21:59:29.861Z,68.34
2022-08-18T22:09:54.964Z,68.06
2022-08-18T22:20:35.547Z,68.87
2022-08-18T22:30:37.765Z,69.20
2022-08-18T22:40:44.629Z,69.84
2022-08-18T22:50:51.750Z,71.02
2022-08-18T23:00:54.844Z,71.74
2022-08-18T23:11:14.201Z,72.77
2022-08-18T23:21:34.610Z,72.83
2022-08-18T23:31:52.241Z,72.36
2022-08-18T23:41:57.765Z,71.96
2022-08-18T23:52:00.806Z,71.77
